createdAt,value
2018-03-20T00:00:37.803Z,19.70
2018-03-20T00:03:05.214Z,22.13
2018-03-20T00:05:32.632Z,21.47
2018-03-20T00:08:00.057Z,21.53
2018-03-20T00:10:27.464Z,21.45
2018-03-20T00:12:54.891Z,25.10
2018-03-20T00:15:22.305Z,25.57
2018-03-20T00:17:49.731Z,19.63
2018-03-20T00:20:17.142Z,20.77
2018-03-20T00:22:44.563Z,23.63
2018-03-20T00:25:11.979Z,24.73
2018-03-20T00:27:39.395Z,23.83
2018-03-20T00:30:06.811Z,29.50
2018-03-20T00:32:34.226Z,24.13
2018-03-20T00:35:01.630Z,22.83
2018-03-20T00:37:29.055Z,26.27
2018-03-20T00:39:56.461Z,19.20
2018-03-20T00:42:23.887Z,25.67
2018-03-20T00:44:51.311Z,23.90
2018-03-20T00:47:19.568Z,27.73
2018-03-20T00:49:46.974Z,25.40
2018-03-20T00:52:14.405Z,24.93
2018-03-20T00:54:41.805Z,21.87
2018-03-20T00:57:09.236Z,22.37
2018-03-20T00:59:36.662Z,25.20
2018-03-20T01:02:04.074Z,21.73
2018-03-20T01:04:31.486Z,25.43
2018-03-20T01:06:58.914Z,20.05
2018-03-20T01:09:26.333Z,22.80
2018-03-20T01:11:53.751Z,18.50
2018-03-20T01:14:21.162Z,26.50
2018-03-20T01:16:48.589Z,26.60
2018-03-20T01:19:15.997Z,23.57
2018-03-20T01:21:43.416Z,23.87
2018-03-20T01:24:10.847Z,23.03
2018-03-20T01:26:38.264Z,16.33
2018-03-20T01:29:05.680Z,23.90
2018-03-20T01:31:33.081Z,25.30
2018-03-20T01:34:00.506Z,20.13
2018-03-20T01:36:27.922Z,20.90
2018-03-20T01:38:55.343Z,25.85
2018-03-20T01:41:22.770Z,21.60
2018-03-20T01:43:51.197Z,23.45
2018-03-20T01:46:18.610Z,23.33
2018-03-20T01:48:46.039Z,25.60
2018-03-20T01:51:13.454Z,22.70
2018-03-20T01:53:40.866Z,23.40
2018-03-20T01:56:08.275Z,25.43
2018-03-20T01:58:35.693Z,24.60
2018-03-20T02:01:03.109Z,24.20
2018-03-20T02:03:30.531Z,23.55
2018-03-20T02:05:57.962Z,25.77
2018-03-20T02:08:25.379Z,20.50
2018-03-20T02:10:52.783Z,20.02
2018-03-20T02:13:20.223Z,21.90
2018-03-20T02:15:47.650Z,26.00
2018-03-20T02:18:15.070Z,22.92
2018-03-20T02:20:42.480Z,26.73
2018-03-20T02:23:09.890Z,24.30
2018-03-20T02:25:37.306Z,26.48
2018-03-20T02:28:04.736Z,30.17
2018-03-20T02:30:32.147Z,25.83
2018-03-20T02:32:59.560Z,26.77
2018-03-20T02:35:26.978Z,30.45
2018-03-20T02:37:54.398Z,30.67
2018-03-20T02:40:21.811Z,25.83
2018-03-20T02:42:49.226Z,25.33
2018-03-20T02:45:16.635Z,25.63
2018-03-20T02:47:44.050Z,34.75
2018-03-20T02:50:11.473Z,22.13
2018-03-20T02:52:38.881Z,29.53
2018-03-20T02:55:06.316Z,26.60
2018-03-20T02:57:33.739Z,21.70
2018-03-20T03:00:01.148Z,29.23
2018-03-20T03:02:28.565Z,23.90
2018-03-20T03:04:55.988Z,27.40
2018-03-20T03:07:23.869Z,29.95
2018-03-20T03:09:51.293Z,26.00
2018-03-20T03:12:18.699Z,20.75
2018-03-20T03:14:46.115Z,21.30
2018-03-20T03:17:13.523Z,29.00
2018-03-20T03:19:40.941Z,28.60
2018-03-20T03:22:08.355Z,25.90
2018-03-20T03:24:35.772Z,24.07
2018-03-20T03:27:03.170Z,23.53
2018-03-20T03:29:30.593Z,22.97
2018-03-20T03:31:58.004Z,26.00
2018-03-20T03:34:25.443Z,26.67
2018-03-20T03:36:53.532Z,24.03
2018-03-20T03:39:21.009Z,23.90
2018-03-20T03:41:48.418Z,26.10
2018-03-20T03:44:15.854Z,25.10
2018-03-20T03:46:43.264Z,17.47
2018-03-20T03:49:10.677Z,25.03
2018-03-20T03:51:38.101Z,24.10
2018-03-20T03:56:40.054Z,25.05
2018-03-20T03:59:07.474Z,23.60
2018-03-20T04:01:34.890Z,24.37
2018-03-20T04:04:02.327Z,22.13
2018-03-20T04:06:29.751Z,25.37
2018-03-20T04:08:57.161Z,28.90
2018-03-20T04:11:24.574Z,20.62
2018-03-20T04:13:52.137Z,27.17
2018-03-20T04:16:19.560Z,28.83
2018-03-20T04:18:46.979Z,31.73
2018-03-20T04:21:14.402Z,37.13
2018-03-20T04:23:41.847Z,38.90
2018-03-20T04:26:09.267Z,31.07
2018-03-20T04:28:36.689Z,29.87
2018-03-20T04:31:04.117Z,33.77
2018-03-20T04:33:31.534Z,36.27
2018-03-20T04:35:58.945Z,34.27
2018-03-20T04:38:26.733Z,35.55
2018-03-20T04:40:54.158Z,34.60
2018-03-20T04:43:21.583Z,33.27
2018-03-20T04:45:48.993Z,31.67
2018-03-20T04:48:16.410Z,32.03
2018-03-20T04:50:43.835Z,43.97
2018-03-20T04:53:11.247Z,33.60
2018-03-20T04:55:38.669Z,36.33
2018-03-20T04:58:06.077Z,30.67
2018-03-20T05:00:33.499Z,28.77
2018-03-20T05:03:00.905Z,33.00
2018-03-20T05:05:28.322Z,30.33
2018-03-20T05:07:55.739Z,33.65
2018-03-20T05:10:23.159Z,33.93
2018-03-20T05:12:50.582Z,29.93
2018-03-20T05:15:17.991Z,31.23
2018-03-20T05:17:46.906Z,26.80
2018-03-20T05:23:29.582Z,24.67
2018-03-20T05:25:57.229Z,31.83
2018-03-20T05:28:24.648Z,25.43
2018-03-20T05:30:53.561Z,30.93
2018-03-20T05:33:21.045Z,25.30
2018-03-20T05:35:48.477Z,30.00
2018-03-20T05:38:15.888Z,26.80
2018-03-20T05:40:43.305Z,28.47
2018-03-20T05:43:10.720Z,26.20
2018-03-20T05:45:38.160Z,25.55
2018-03-20T05:48:11.174Z,25.70
2018-03-20T05:53:44.078Z,27.45
2018-03-20T05:56:11.502Z,30.98
2018-03-20T05:58:38.975Z,31.40
2018-03-20T06:01:06.366Z,27.50
2018-03-20T06:03:33.778Z,34.00
2018-03-20T06:06:01.212Z,25.63
2018-03-20T06:08:28.626Z,34.13
2018-03-20T06:10:56.049Z,26.40
2018-03-20T06:13:23.470Z,28.10
2018-03-20T06:15:50.905Z,28.70
2018-03-20T06:18:18.330Z,28.90
2018-03-20T06:20:45.756Z,24.60
2018-03-20T06:23:13.184Z,31.27
2018-03-20T06:25:40.610Z,30.27
2018-03-20T06:28:08.040Z,34.47
2018-03-20T06:30:35.458Z,29.12
2018-03-20T06:33:02.884Z,26.62
2018-03-20T06:35:31.074Z,36.78
2018-03-20T06:37:58.517Z,38.27
2018-03-20T06:40:25.916Z,35.37
2018-03-20T06:42:53.334Z,34.83
2018-03-20T06:45:20.761Z,31.70
2018-03-20T06:47:48.199Z,35.17
2018-03-20T06:50:15.620Z,35.60
2018-03-20T06:52:43.039Z,47.77
2018-03-20T06:55:10.459Z,55.63
2018-03-20T06:57:37.874Z,39.60
2018-03-20T07:00:05.290Z,36.70
2018-03-20T07:02:32.727Z,53.00
2018-03-20T07:05:00.139Z,43.57
2018-03-20T07:07:27.566Z,37.60
2018-03-20T07:09:54.986Z,32.93
2018-03-20T07:12:22.410Z,42.63
2018-03-20T07:14:49.823Z,42.73
2018-03-20T07:17:17.269Z,31.63
2018-03-20T07:19:44.678Z,26.80
2018-03-20T07:22:12.106Z,42.93
2018-03-20T07:24:39.535Z,26.13
2018-03-20T07:27:06.954Z,27.73
2018-03-20T07:29:34.365Z,22.07
2018-03-20T07:32:01.820Z,24.40
2018-03-20T07:34:29.265Z,29.85
2018-03-20T07:36:56.642Z,24.80
2018-03-20T07:39:24.058Z,29.83
2018-03-20T07:41:51.494Z,31.20
2018-03-20T07:44:18.934Z,29.00
2018-03-20T07:46:46.348Z,27.13
2018-03-20T07:49:13.783Z,27.13
2018-03-20T07:51:41.195Z,29.50
2018-03-20T07:54:08.625Z,32.00
2018-03-20T07:56:36.034Z,29.25
2018-03-20T07:59:04.295Z,25.33
2018-03-20T08:01:31.714Z,27.97
2018-03-20T08:03:59.141Z,26.93
2018-03-20T08:06:26.549Z,28.45
2018-03-20T08:08:53.971Z,29.37
2018-03-20T08:11:21.416Z,31.23
2018-03-20T08:13:48.881Z,28.20
2018-03-20T08:16:16.259Z,23.60
2018-03-20T08:18:43.688Z,27.20
2018-03-20T08:21:11.101Z,21.03
2018-03-20T08:23:38.528Z,26.60
2018-03-20T08:26:05.942Z,29.80
2018-03-20T08:28:33.366Z,22.08
2018-03-20T08:31:00.798Z,28.53
2018-03-20T08:33:28.226Z,23.13
2018-03-20T08:35:55.650Z,25.80
2018-03-20T08:38:23.070Z,23.50
2018-03-20T08:40:50.486Z,21.90
2018-03-20T08:43:17.911Z,25.87
2018-03-20T08:45:45.340Z,24.33
2018-03-20T08:48:12.760Z,27.13
2018-03-20T08:50:40.180Z,22.40
2018-03-20T08:53:07.598Z,22.93
2018-03-20T08:55:35.020Z,24.27
2018-03-20T08:58:02.434Z,31.43
2018-03-20T09:00:29.859Z,23.90
2018-03-20T09:02:57.293Z,23.53
2018-03-20T09:05:24.707Z,26.60
2018-03-20T09:07:52.122Z,25.95
2018-03-20T09:10:19.537Z,22.47
2018-03-20T09:12:46.962Z,20.20
2018-03-20T09:15:14.381Z,26.73
2018-03-20T09:17:41.791Z,21.65
2018-03-20T09:20:09.207Z,26.90
2018-03-20T09:22:36.618Z,23.15
2018-03-20T09:25:04.466Z,21.17
2018-03-20T09:27:31.878Z,24.30
2018-03-20T09:29:59.297Z,20.80
2018-03-20T09:32:26.709Z,25.13
2018-03-20T09:34:54.141Z,22.03
2018-03-20T09:37:21.556Z,25.57
2018-03-20T09:39:48.975Z,17.90
2018-03-20T09:42:16.382Z,18.70
2018-03-20T09:44:43.797Z,19.17
2018-03-20T09:47:11.202Z,19.70
2018-03-20T09:49:38.985Z,27.02
2018-03-20T09:52:06.394Z,20.30
2018-03-20T09:54:33.811Z,25.97
2018-03-20T09:57:01.219Z,20.98
2018-03-20T09:59:28.637Z,18.40
2018-03-20T10:01:56.046Z,17.67
2018-03-20T10:04:23.473Z,16.20
2018-03-20T10:06:50.874Z,18.27
2018-03-20T10:09:18.290Z,14.23
2018-03-20T10:11:45.702Z,15.70
2018-03-20T10:14:13.130Z,17.90
2018-03-20T10:16:40.534Z,18.63
2018-03-20T10:19:07.950Z,17.80
2018-03-20T10:21:35.362Z,22.98
2018-03-20T10:24:02.783Z,15.97
2018-03-20T10:26:30.187Z,13.23
2018-03-20T10:28:57.614Z,18.30
2018-03-20T10:31:25.026Z,20.23
2018-03-20T10:33:52.444Z,14.70
2018-03-20T10:36:19.928Z,12.87
2018-03-20T10:38:47.324Z,10.40
2018-03-20T10:41:14.747Z,14.07
2018-03-20T10:43:42.168Z,18.17
2018-03-20T10:46:09.573Z,12.37
2018-03-20T10:48:36.987Z,11.90
2018-03-20T10:51:04.408Z,10.53
2018-03-20T10:53:31.808Z,10.57
2018-03-20T10:55:59.225Z,9.20
2018-03-20T10:58:26.627Z,7.10
2018-03-20T11:00:59.727Z,5.82
2018-03-20T11:03:27.132Z,9.93
2018-03-20T11:05:54.546Z,7.73
2018-03-20T11:08:21.958Z,11.30
2018-03-20T11:10:49.370Z,10.70
2018-03-20T11:13:16.778Z,10.13
2018-03-20T11:15:44.190Z,10.63
2018-03-20T11:18:11.599Z,11.63
2018-03-20T11:20:39.025Z,14.27
2018-03-20T11:23:06.427Z,10.27
2018-03-20T11:25:33.843Z,9.57
2018-03-20T11:28:01.251Z,9.55
2018-03-20T11:30:28.700Z,7.07
2018-03-20T11:32:56.100Z,8.30
2018-03-20T11:35:23.518Z,8.60
2018-03-20T11:37:50.939Z,9.10
2018-03-20T11:40:18.351Z,11.70
2018-03-20T11:42:45.770Z,9.37
2018-03-20T11:45:14.237Z,11.36
2018-03-20T11:47:41.639Z,8.33
2018-03-20T11:50:09.051Z,9.43
2018-03-20T11:52:36.455Z,8.68
2018-03-20T11:55:03.861Z,9.17
2018-03-20T11:57:31.265Z,10.20
2018-03-20T11:59:58.704Z,10.20
2018-03-20T12:02:26.112Z,14.73
2018-03-20T12:04:53.530Z,9.93
2018-03-20T12:07:20.939Z,8.73
2018-03-20T12:09:49.260Z,12.43
2018-03-20T12:12:16.678Z,11.87
2018-03-20T12:14:44.082Z,12.20
2018-03-20T12:17:11.497Z,12.93
2018-03-20T12:19:38.901Z,17.17
2018-03-20T12:22:06.323Z,19.57
2018-03-20T12:24:33.731Z,14.20
2018-03-20T12:27:01.150Z,14.27
2018-03-20T12:29:28.563Z,12.93
2018-03-20T12:31:56.030Z,19.37
2018-03-20T12:34:23.393Z,14.82
2018-03-20T12:36:50.802Z,16.33
2018-03-20T12:39:18.205Z,16.50
2018-03-20T12:41:46.634Z,17.12
2018-03-20T12:44:14.042Z,14.27
2018-03-20T12:46:41.534Z,8.93
2018-03-20T12:49:08.869Z,10.90
2018-03-20T12:51:36.282Z,12.23
2018-03-20T12:54:03.691Z,10.07
2018-03-20T12:56:31.127Z,12.57
2018-03-20T12:58:58.529Z,9.30
2018-03-20T13:01:26.002Z,11.15
2018-03-20T13:03:53.359Z,12.50
2018-03-20T13:06:20.798Z,14.80
2018-03-20T13:08:48.218Z,11.00
2018-03-20T13:11:15.627Z,14.73
2018-03-20T13:13:43.039Z,13.70
2018-03-20T13:16:10.738Z,9.43
2018-03-20T13:18:38.158Z,19.43
2018-03-20T13:21:05.585Z,13.83
2018-03-20T13:23:32.991Z,17.43
2018-03-20T13:26:00.412Z,13.03
2018-03-20T13:28:27.823Z,16.93
2018-03-20T13:30:55.244Z,10.10
2018-03-20T13:33:22.660Z,12.63
2018-03-20T13:35:50.071Z,11.97
2018-03-20T13:38:18.086Z,16.37
2018-03-20T13:40:45.492Z,12.90
2018-03-20T13:43:12.914Z,11.00
2018-03-20T13:45:40.328Z,14.03
2018-03-20T13:48:07.737Z,13.50
2018-03-20T13:50:35.154Z,14.43
2018-03-20T13:53:02.587Z,24.67
2018-03-20T13:55:30.004Z,25.03
2018-03-20T13:57:57.426Z,15.03
2018-03-20T14:00:24.851Z,26.57
2018-03-20T14:02:52.273Z,16.67
2018-03-20T14:05:19.683Z,23.87
2018-03-20T14:07:47.100Z,21.77
2018-03-20T14:10:14.514Z,21.73
2018-03-20T14:12:41.921Z,20.00
2018-03-20T14:15:09.326Z,17.20
2018-03-20T14:17:36.755Z,27.50
2018-03-20T14:20:04.157Z,27.90
2018-03-20T14:22:31.582Z,18.63
2018-03-20T14:24:59.000Z,24.20
2018-03-20T14:27:26.441Z,20.27
2018-03-20T14:29:53.842Z,18.23
2018-03-20T14:32:21.263Z,17.15
2018-03-20T14:34:49.442Z,19.48
2018-03-20T14:37:16.863Z,20.90
2018-03-20T14:39:44.279Z,15.83
2018-03-20T14:42:11.703Z,20.13
2018-03-20T14:44:39.111Z,23.33
2018-03-20T14:47:06.523Z,20.13
2018-03-20T14:49:33.930Z,16.63
2018-03-20T14:52:01.414Z,17.20
2018-03-20T14:54:28.831Z,26.45
2018-03-20T14:56:56.250Z,31.60
2018-03-20T14:59:23.658Z,21.10
2018-03-20T15:01:51.142Z,23.62
2018-03-20T15:04:18.502Z,22.20
2018-03-20T15:06:45.919Z,18.63
2018-03-20T15:09:13.334Z,21.98
2018-03-20T15:11:40.740Z,20.67
2018-03-20T15:14:08.171Z,23.03
2018-03-20T15:16:35.578Z,21.93
2018-03-20T15:19:02.999Z,21.57
2018-03-20T15:21:30.403Z,20.03
2018-03-20T15:23:57.824Z,23.83
2018-03-20T15:26:25.230Z,16.90
2018-03-20T15:28:52.664Z,22.60
2018-03-20T15:31:21.042Z,22.20
2018-03-20T15:33:48.453Z,21.07
2018-03-20T15:36:15.862Z,20.40
2018-03-20T15:38:43.282Z,18.20
2018-03-20T15:41:10.708Z,23.23
2018-03-20T15:43:38.121Z,23.93
2018-03-20T15:46:05.528Z,24.03
2018-03-20T15:48:32.949Z,23.73
2018-03-20T15:51:00.365Z,20.33
2018-03-20T15:53:27.786Z,21.40
2018-03-20T15:55:55.219Z,17.90
2018-03-20T15:58:22.648Z,18.85
2018-03-20T16:00:50.051Z,16.67
2018-03-20T16:03:17.466Z,22.80
2018-03-20T16:05:44.893Z,20.15
2018-03-20T16:08:12.305Z,23.67
2018-03-20T16:10:39.773Z,16.60
2018-03-20T16:13:07.207Z,19.67
2018-03-20T16:15:34.621Z,18.73
2018-03-20T16:18:02.038Z,20.92
2018-03-20T16:20:29.454Z,24.40
2018-03-20T16:22:56.919Z,24.80
2018-03-20T16:25:24.291Z,18.50
2018-03-20T16:27:51.707Z,17.30
2018-03-20T16:30:19.118Z,23.13
2018-03-20T16:32:46.537Z,21.10
2018-03-20T16:35:13.947Z,21.47
2018-03-20T16:37:41.367Z,24.80
2018-03-20T16:40:08.791Z,29.23
2018-03-20T16:42:36.198Z,21.17
2018-03-20T16:45:03.614Z,21.87
2018-03-20T16:47:31.036Z,33.37
2018-03-20T16:49:58.451Z,25.53
2018-03-20T16:52:25.870Z,27.50
2018-03-20T16:54:53.586Z,30.10
2018-03-20T16:57:21.024Z,45.70
2018-03-20T16:59:48.492Z,27.40
2018-03-20T17:02:15.866Z,29.80
2018-03-20T17:04:43.278Z,34.90
2018-03-20T17:07:10.694Z,36.07
2018-03-20T17:09:39.254Z,34.47
2018-03-20T17:12:06.663Z,32.03
2018-03-20T17:14:34.183Z,29.92
2018-03-20T17:17:01.598Z,27.97
2018-03-20T17:19:29.037Z,28.80
2018-03-20T17:21:56.446Z,29.13
2018-03-20T17:24:24.618Z,32.17
2018-03-20T17:26:52.034Z,33.30
2018-03-20T17:29:19.454Z,34.93
2018-03-20T17:31:46.871Z,28.33
2018-03-20T17:34:14.296Z,33.23
2018-03-20T17:36:41.702Z,32.35
2018-03-20T17:39:09.120Z,30.80
2018-03-20T17:41:36.534Z,28.12
2018-03-20T17:44:03.965Z,31.45
2018-03-20T17:46:31.372Z,30.90
2018-03-20T17:48:58.788Z,37.83
2018-03-20T17:51:26.208Z,26.98
2018-03-20T17:53:53.624Z,36.30
2018-03-20T17:56:21.032Z,29.90
2018-03-20T17:58:48.544Z,33.97
2018-03-20T18:01:15.953Z,35.70
2018-03-20T18:03:43.365Z,38.20
2018-03-20T18:06:10.773Z,42.75
2018-03-20T18:08:38.201Z,46.87
2018-03-20T18:11:05.615Z,43.80
2018-03-20T18:13:33.042Z,43.60
2018-03-20T18:16:00.465Z,44.90
2018-03-20T18:18:27.873Z,37.00
2018-03-20T18:20:55.303Z,40.70
2018-03-20T18:23:22.710Z,41.97
2018-03-20T18:25:50.147Z,36.97
2018-03-20T18:28:17.564Z,32.35
2018-03-20T18:30:44.982Z,38.30
2018-03-20T18:33:12.392Z,38.73
2018-03-20T18:35:39.806Z,35.60
2018-03-20T18:38:07.210Z,39.00
2018-03-20T18:40:34.646Z,40.87
2018-03-20T18:43:02.077Z,36.70
2018-03-20T18:45:29.490Z,38.23
2018-03-20T18:47:57.470Z,34.88
2018-03-20T18:50:24.886Z,37.20
2018-03-20T18:52:52.302Z,34.63
2018-03-20T18:55:19.730Z,32.20
2018-03-20T18:57:47.141Z,40.77
2018-03-20T19:00:14.600Z,41.30
2018-03-20T19:02:41.987Z,50.90
2018-03-20T19:05:09.415Z,40.97
2018-03-20T19:07:36.826Z,52.97
2018-03-20T19:10:04.394Z,42.40
2018-03-20T19:12:31.857Z,44.67
2018-03-20T19:14:59.271Z,54.63
2018-03-20T19:17:26.681Z,52.90
2018-03-20T19:19:54.098Z,50.10
2018-03-20T19:22:21.518Z,51.00
2018-03-20T19:24:48.930Z,48.03
2018-03-20T19:27:16.345Z,49.20
2018-03-20T19:29:43.761Z,43.30
2018-03-20T19:32:11.176Z,43.57
2018-03-20T19:34:38.613Z,44.33
2018-03-20T19:37:06.039Z,34.47
2018-03-20T19:39:33.450Z,35.20
2018-03-20T19:42:00.982Z,37.80
2018-03-20T19:44:28.534Z,33.33
2018-03-20T19:46:56.392Z,41.53
2018-03-20T19:49:23.911Z,45.90
2018-03-20T19:51:51.347Z,39.70
2018-03-20T19:54:19.712Z,35.83
2018-03-20T19:56:47.139Z,32.40
2018-03-20T19:59:14.562Z,33.83
2018-03-20T20:01:41.973Z,34.42
2018-03-20T20:04:09.391Z,27.00
2018-03-20T20:06:36.812Z,36.60
2018-03-20T20:09:04.225Z,30.97
2018-03-20T20:11:31.637Z,35.10
2018-03-20T20:13:59.053Z,34.40
2018-03-20T20:16:26.468Z,31.10
2018-03-20T20:18:53.877Z,34.60
2018-03-20T20:21:21.315Z,35.13
2018-03-20T20:23:48.719Z,35.43
2018-03-20T20:26:16.146Z,32.77
2018-03-20T20:28:43.569Z,36.97
2018-03-20T20:31:10.986Z,30.55
2018-03-20T20:33:38.410Z,31.37
2018-03-20T20:36:05.831Z,31.37
2018-03-20T20:38:33.262Z,27.40
2018-03-20T20:41:01.571Z,26.20
2018-03-20T20:43:29.068Z,30.60
2018-03-20T20:45:56.492Z,32.23
2018-03-20T20:48:23.906Z,21.30
2018-03-20T20:50:51.332Z,25.73
2018-03-20T20:53:18.748Z,25.30
2018-03-20T20:55:46.154Z,23.23
2018-03-20T20:58:13.566Z,24.03
2018-03-20T21:00:40.988Z,23.00
2018-03-20T21:03:08.400Z,18.73
2018-03-20T21:05:35.846Z,24.77
2018-03-20T21:08:03.393Z,21.20
2018-03-20T21:10:30.989Z,17.83
2018-03-20T21:12:58.614Z,19.23
2018-03-20T21:15:26.085Z,20.23
2018-03-20T21:17:53.646Z,23.43
2018-03-20T21:20:21.340Z,20.48
2018-03-20T21:22:48.853Z,20.77
2018-03-20T21:25:16.425Z,16.67
2018-03-20T21:27:43.933Z,13.83
2018-03-20T21:30:11.523Z,16.87
2018-03-20T21:32:39.049Z,13.93
2018-03-20T21:35:06.534Z,15.30
2018-03-20T21:37:34.005Z,20.40
2018-03-20T21:40:01.544Z,15.83
2018-03-20T21:42:32.194Z,15.23
2018-03-20T21:45:01.542Z,12.23
2018-03-20T21:47:31.610Z,16.47
2018-03-20T21:49:59.243Z,14.07
2018-03-20T21:52:28.367Z,20.07
2018-03-20T21:54:57.183Z,15.03
2018-03-20T21:57:26.570Z,10.68
2018-03-20T22:02:43.615Z,15.25
2018-03-20T22:05:13.638Z,14.63
2018-03-20T22:07:43.382Z,13.20
2018-03-20T22:10:12.928Z,16.20
2018-03-20T22:12:42.311Z,14.93
2018-03-20T22:15:12.250Z,11.60
2018-03-20T22:17:41.796Z,11.98
2018-03-20T22:20:11.628Z,14.10
2018-03-20T22:22:40.591Z,12.30
2018-03-20T22:25:09.834Z,12.50
2018-03-20T22:27:39.613Z,12.70
2018-03-20T22:30:08.819Z,14.80
2018-03-20T22:32:38.734Z,12.73
2018-03-20T22:35:08.711Z,12.60
2018-03-20T22:37:38.231Z,12.48
2018-03-20T22:40:08.331Z,8.70
2018-03-20T22:42:38.891Z,13.57
2018-03-20T22:45:09.791Z,13.70
2018-03-20T22:47:39.133Z,14.07
2018-03-20T22:50:09.568Z,11.65
2018-03-20T22:52:39.430Z,11.80
2018-03-20T22:55:09.388Z,10.55
2018-03-20T22:57:41.138Z,13.82
2018-03-20T23:00:11.039Z,10.87
2018-03-20T23:02:41.039Z,10.33
2018-03-20T23:05:10.449Z,10.73
2018-03-20T23:07:40.087Z,9.40
2018-03-20T23:10:10.068Z,10.13
2018-03-20T23:12:40.268Z,11.02
2018-03-20T23:15:10.048Z,12.30
2018-03-20T23:17:40.138Z,10.82
2018-03-20T23:20:10.476Z,8.80
2018-03-20T23:22:40.381Z,8.93
2018-03-20T23:25:10.638Z,14.38
2018-03-20T23:27:39.811Z,8.25
2018-03-20T23:30:08.629Z,8.70
2018-03-20T23:32:38.577Z,10.40
2018-03-20T23:35:08.343Z,10.47
2018-03-20T23:37:38.125Z,9.02
2018-03-20T23:40:06.832Z,10.40
2018-03-20T23:42:36.936Z,9.83
2018-03-20T23:45:07.019Z,12.17
2018-03-20T23:47:36.284Z,10.40
2018-03-20T23:50:05.893Z,10.20
2018-03-20T23:52:35.652Z,8.18
2018-03-20T23:55:05.909Z,11.13
2018-03-20T23:57:35.963Z,9.33
